sensor_id;sensor_type;location;lat;lon;timestamp;P1;durP1;ratioP1;P2;durP2;ratioP2
11034;SDS011;5571;48.110;-1.706;2023-01-04T00:00:33;17.67;;;3.80;;
11034;SDS011;5571;48.110;-1.706;2023-01-04T00:02:59;17.67;;;3.83;;
11034;SDS011;5571;48.110;-1.706;2023-01-04T00:05:25;15.30;;;3.43;;
11034;SDS011;5571;48.110;-1.706;2023-01-04T00:07:50;12.20;;;3.20;;
11034;SDS011;5571;48.110;-1.706;2023-01-04T00:10:16;12.03;;;2.80;;
11034;SDS011;5571;48.110;-1.706;2023-01-04T00:12:41;13.13;;;2.60;;
11034;SDS011;5571;48.110;-1.706;2023-01-04T00:15:07;12.47;;;3.13;;
11034;SDS011;5571;48.110;-1.706;2023-01-04T00:17:33;13.20;;;2.67;;
11034;SDS011;5571;48.110;-1.706;2023-01-04T00:19:59;11.83;;;2.60;;
11034;SDS011;5571;48.110;-1.706;2023-01-04T00:22:25;12.60;;;2.97;;
11034;SDS011;5571;48.110;-1.706;2023-01-04T00:24:50;32.33;;;3.50;;
11034;SDS011;5571;48.110;-1.706;2023-01-04T00:27:16;17.30;;;3.03;;
11034;SDS011;5571;48.110;-1.706;2023-01-04T00:29:42;11.20;;;3.20;;
11034;SDS011;5571;48.110;-1.706;2023-01-04T00:32:07;17.43;;;3.63;;
11034;SDS011;5571;48.110;-1.706;2023-01-04T00:34:33;21.40;;;3.37;;
11034;SDS011;5571;48.110;-1.706;2023-01-04T00:36:58;18.23;;;3.60;;
11034;SDS011;5571;48.110;-1.706;2023-01-04T00:39:24;19.13;;;3.47;;
11034;SDS011;5571;48.110;-1.706;2023-01-04T00:41:50;21.30;;;3.93;;
11034;SDS011;5571;48.110;-1.706;2023-01-04T00:44:17;20.87;;;3.43;;
11034;SDS011;5571;48.110;-1.706;2023-01-04T00:46:45;14.73;;;3.13;;
11034;SDS011;5571;48.110;-1.706;2023-01-04T00:49:11;18.07;;;3.90;;
11034;SDS011;5571;48.110;-1.706;2023-01-04T00:51:38;24.43;;;3.83;;
11034;SDS011;5571;48.110;-1.706;2023-01-04T00:54:06;23.63;;;3.77;;
11034;SDS011;5571;48.110;-1.706;2023-01-04T00:56:35;19.87;;;4.23;;
11034;SDS011;5571;48.110;-1.706;2023-01-04T00:59:01;12.50;;;3.00;;
11034;SDS011;5571;48.110;-1.706;2023-01-04T01:01:28;15.17;;;2.93;;
11034;SDS011;5571;48.110;-1.706;2023-01-04T01:03:56;17.07;;;3.17;;
11034;SDS011;5571;48.110;-1.706;2023-01-04T01:06:23;15.80;;;3.90;;
11034;SDS011;5571;48.110;-1.706;2023-01-04T01:08:50;20.03;;;3.20;;
11034;SDS011;5571;48.110;-1.706;2023-01-04T01:11:16;10.43;;;2.73;;
11034;SDS011;5571;48.110;-1.706;2023-01-04T01:13:43;16.90;;;2.80;;
11034;SDS011;5571;48.110;-1.706;2023-01-04T01:16:10;13.23;;;2.50;;
11034;SDS011;5571;48.110;-1.706;2023-01-04T01:18:38;16.30;;;2.73;;
11034;SDS011;5571;48.110;-1.706;2023-01-04T01:21:08;12.40;;;2.53;;
11034;SDS011;5571;48.110;-1.706;2023-01-04T01:23:37;11.73;;;2.70;;
11034;SDS011;5571;48.110;-1.706;2023-01-04T01:26:04;7.23;;;2.30;;
11034;SDS011;5571;48.110;-1.706;2023-01-04T01:28:32;14.77;;;2.57;;
11034;SDS011;5571;48.110;-1.706;2023-01-04T01:30:58;9.47;;;2.70;;
11034;SDS011;5571;48.110;-1.706;2023-01-04T01:33:28;8.43;;;2.50;;
11034;SDS011;5571;48.110;-1.706;2023-01-04T01:35:54;12.47;;;2.90;;
11034;SDS011;5571;48.110;-1.706;2023-01-04T01:38:23;14.57;;;2.53;;
11034;SDS011;5571;48.110;-1.706;2023-01-04T01:40:49;12.50;;;2.60;;
11034;SDS011;5571;48.110;-1.706;2023-01-04T01:43:18;9.97;;;2.20;;
11034;SDS011;5571;48.110;-1.706;2023-01-04T01:45:48;10.90;;;2.47;;
11034;SDS011;5571;48.110;-1.706;2023-01-04T01:48:22;15.87;;;2.60;;
11034;SDS011;5571;48.110;-1.706;2023-01-04T01:53:18;11.53;;;2.43;;
11034;SDS011;5571;48.110;-1.706;2023-01-04T01:55:44;18.47;;;2.97;;
11034;SDS011;5571;48.110;-1.706;2023-01-04T01:58:12;16.57;;;3.33;;
11034;SDS011;5571;48.110;-1.706;2023-01-04T02:00:45;12.03;;;2.83;;
11034;SDS011;5571;48.110;-1.706;2023-01-04T02:03:15;15.07;;;3.20;;
11034;SDS011;5571;48.110;-1.706;2023-01-04T02:05:47;12.27;;;2.73;;
11034;SDS011;5571;48.110;-1.706;2023-01-04T02:08:15;15.67;;;3.30;;
11034;SDS011;5571;48.110;-1.706;2023-01-04T02:10:42;14.87;;;3.30;;
11034;SDS011;5571;48.110;-1.706;2023-01-04T02:13:09;15.90;;;3.03;;
11034;SDS011;5571;48.110;-1.706;2023-01-04T02:15:48;13.33;;;2.60;;
11034;SDS011;5571;48.110;-1.706;2023-01-04T02:18:36;18.57;;;3.00;;
11034;SDS011;5571;48.110;-1.706;2023-01-04T02:21:15;17.90;;;3.57;;
11034;SDS011;5571;48.110;-1.706;2023-01-04T02:35:40;23.97;;;3.93;;
11034;SDS011;5571;48.110;-1.706;2023-01-04T02:41:09;19.70;;;3.87;;
11034;SDS011;5571;48.110;-1.706;2023-01-04T02:46:29;18.30;;;4.00;;
11034;SDS011;5571;48.110;-1.706;2023-01-04T02:49:00;29.37;;;5.47;;
11034;SDS011;5571;48.110;-1.706;2023-01-04T02:51:45;24.93;;;3.97;;
11034;SDS011;5571;48.110;-1.706;2023-01-04T02:54:15;22.53;;;3.70;;
11034;SDS011;5571;48.110;-1.706;2023-01-04T03:11:20;18.23;;;3.87;;
11034;SDS011;5571;48.110;-1.706;2023-01-04T03:14:18;23.90;;;4.27;;
11034;SDS011;5571;48.110;-1.706;2023-01-04T03:16:46;36.33;;;5.23;;
11034;SDS011;5571;48.110;-1.706;2023-01-04T03:19:14;25.03;;;4.17;;
11034;SDS011;5571;48.110;-1.706;2023-01-04T03:22:03;24.93;;;4.50;;
11034;SDS011;5571;48.110;-1.706;2023-01-04T03:24:50;22.30;;;4.87;;
11034;SDS011;5571;48.110;-1.706;2023-01-04T03:27:35;25.20;;;4.37;;
11034;SDS011;5571;48.110;-1.706;2023-01-04T03:30:20;21.23;;;3.83;;
11034;SDS011;5571;48.110;-1.706;2023-01-04T03:33:06;31.83;;;4.80;;
11034;SDS011;5571;48.110;-1.706;2023-01-04T03:38:34;25.67;;;5.00;;
11034;SDS011;5571;48.110;-1.706;2023-01-04T03:41:26;30.67;;;4.77;;
11034;SDS011;5571;48.110;-1.706;2023-01-04T03:44:46;28.00;;;4.93;;
11034;SDS011;5571;48.110;-1.706;2023-01-04T03:47:59;33.40;;;4.67;;
11034;SDS011;5571;48.110;-1.706;2023-01-04T03:50:52;34.27;;;5.50;;
11034;SDS011;5571;48.110;-1.706;2023-01-04T03:53:23;25.80;;;4.97;;
11034;SDS011;5571;48.110;-1.706;2023-01-04T03:55:51;26.60;;;4.90;;
11034;SDS011;5571;48.110;-1.706;2023-01-04T03:58:18;30.70;;;5.27;;
11034;SDS011;5571;48.110;-1.706;2023-01-04T04:00:45;34.80;;;4.90;;
11034;SDS011;5571;48.110;-1.706;2023-01-04T04:03:11;36.13;;;5.47;;
11034;SDS011;5571;48.110;-1.706;2023-01-04T04:05:38;25.47;;;4.77;;
11034;SDS011;5571;48.110;-1.706;2023-01-04T04:08:24;28.70;;;5.37;;
11034;SDS011;5571;48.110;-1.706;2023-01-04T04:10:57;26.20;;;5.57;;
11034;SDS011;5571;48.110;-1.706;2023-01-04T04:13:48;34.70;;;5.07;;
11034;SDS011;5571;48.110;-1.706;2023-01-04T04:16:14;28.83;;;4.97;;
11034;SDS011;5571;48.110;-1.706;2023-01-04T04:18:40;28.07;;;4.97;;
11034;SDS011;5571;48.110;-1.706;2023-01-04T04:21:07;34.20;;;6.03;;
11034;SDS011;5571;48.110;-1.706;2023-01-04T04:23:32;37.47;;;5.10;;
11034;SDS011;5571;48.110;-1.706;2023-01-04T04:25:58;29.03;;;4.77;;
11034;SDS011;5571;48.110;-1.706;2023-01-04T04:28:24;33.27;;;5.53;;
11034;SDS011;5571;48.110;-1.706;2023-01-04T04:30:50;26.17;;;5.30;;
11034;SDS011;5571;48.110;-1.706;2023-01-04T04:33:16;28.93;;;5.43;;
11034;SDS011;5571;48.110;-1.706;2023-01-04T04:35:41;30.53;;;4.60;;
11034;SDS011;5571;48.110;-1.706;2023-01-04T04:38:07;35.00;;;6.10;;
11034;SDS011;5571;48.110;-1.706;2023-01-04T04:40:33;32.90;;;5.20;;
11034;SDS011;5571;48.110;-1.706;2023-01-04T04:43:17;31.70;;;5.57;;
11034;SDS011;5571;48.110;-1.706;2023-01-04T04:45:42;32.73;;;4.90;;
11034;SDS011;5571;48.110;-1.706;2023-01-04T04:48:08;29.20;;;5.37;;
11034;SDS011;5571;48.110;-1.706;2023-01-04T04:50:34;33.77;;;5.50;;
11034;SDS011;5571;48.110;-1.706;2023-01-04T04:52:59;32.17;;;5.40;;
11034;SDS011;5571;48.110;-1.706;2023-01-04T04:55:25;30.93;;;4.50;;
11034;SDS011;5571;48.110;-1.706;2023-01-04T04:57:50;23.40;;;4.40;;
11034;SDS011;5571;48.110;-1.706;2023-01-04T05:00:16;29.47;;;4.83;;
11034;SDS011;5571;48.110;-1.706;2023-01-04T05:02:42;23.50;;;4.97;;
11034;SDS011;5571;48.110;-1.706;2023-01-04T05:05:07;27.43;;;4.30;;
11034;SDS011;5571;48.110;-1.706;2023-01-04T05:07:33;32.13;;;4.50;;
11034;SDS011;5571;48.110;-1.706;2023-01-04T05:09:59;29.53;;;4.53;;
11034;SDS011;5571;48.110;-1.706;2023-01-04T05:12:25;32.70;;;5.10;;
11034;SDS011;5571;48.110;-1.706;2023-01-04T05:15:09;27.13;;;4.20;;
11034;SDS011;5571;48.110;-1.706;2023-01-04T05:17:35;25.77;;;4.80;;
11034;SDS011;5571;48.110;-1.706;2023-01-04T05:20:01;25.53;;;4.30;;
11034;SDS011;5571;48.110;-1.706;2023-01-04T05:22:28;28.87;;;4.97;;
11034;SDS011;5571;48.110;-1.706;2023-01-04T05:24:53;21.67;;;4.10;;
11034;SDS011;5571;48.110;-1.706;2023-01-04T05:27:19;21.63;;;3.77;;
11034;SDS011;5571;48.110;-1.706;2023-01-04T05:29:44;27.07;;;4.27;;
11034;SDS011;5571;48.110;-1.706;2023-01-04T05:32:29;24.90;;;4.23;;
11034;SDS011;5571;48.110;-1.706;2023-01-04T05:34:55;24.63;;;4.10;;
11034;SDS011;5571;48.110;-1.706;2023-01-04T05:37:20;21.17;;;4.17;;
11034;SDS011;5571;48.110;-1.706;2023-01-04T05:39:46;20.43;;;4.00;;
11034;SDS011;5571;48.110;-1.706;2023-01-04T05:42:12;26.57;;;4.30;;
11034;SDS011;5571;48.110;-1.706;2023-01-04T05:44:50;26.27;;;4.53;;
11034;SDS011;5571;48.110;-1.706;2023-01-04T05:47:16;27.13;;;4.73;;
11034;SDS011;5571;48.110;-1.706;2023-01-04T05:49:41;26.67;;;4.30;;
11034;SDS011;5571;48.110;-1.706;2023-01-04T05:52:07;22.93;;;4.20;;
11034;SDS011;5571;48.110;-1.706;2023-01-04T05:54:33;16.37;;;3.50;;
11034;SDS011;5571;48.110;-1.706;2023-01-04T05:56:59;19.07;;;3.77;;
11034;SDS011;5571;48.110;-1.706;2023-01-04T05:59:24;21.50;;;3.70;;
11034;SDS011;5571;48.110;-1.706;2023-01-04T06:01:50;24.63;;;4.10;;
11034;SDS011;5571;48.110;-1.706;2023-01-04T06:04:16;22.00;;;4.07;;
11034;SDS011;5571;48.110;-1.706;2023-01-04T06:06:41;16.80;;;3.73;;
11034;SDS011;5571;48.110;-1.706;2023-01-04T06:09:07;20.43;;;4.23;;
11034;SDS011;5571;48.110;-1.706;2023-01-04T06:11:32;14.37;;;3.20;;
11034;SDS011;5571;48.110;-1.706;2023-01-04T06:13:58;22.50;;;3.37;;
11034;SDS011;5571;48.110;-1.706;2023-01-04T06:16:24;16.47;;;3.30;;
11034;SDS011;5571;48.110;-1.706;2023-01-04T06:18:49;14.60;;;2.80;;
11034;SDS011;5571;48.110;-1.706;2023-01-04T06:21:15;18.23;;;3.10;;
11034;SDS011;5571;48.110;-1.706;2023-01-04T06:23:41;18.97;;;3.40;;
11034;SDS011;5571;48.110;-1.706;2023-01-04T06:26:06;20.03;;;2.93;;
11034;SDS011;5571;48.110;-1.706;2023-01-04T06:28:32;13.50;;;2.67;;
11034;SDS011;5571;48.110;-1.706;2023-01-04T06:31:01;21.53;;;3.30;;
11034;SDS011;5571;48.110;-1.706;2023-01-04T06:33:31;16.77;;;3.13;;
11034;SDS011;5571;48.110;-1.706;2023-01-04T06:35:57;15.93;;;3.40;;
11034;SDS011;5571;48.110;-1.706;2023-01-04T06:38:24;22.43;;;3.77;;
11034;SDS011;5571;48.110;-1.706;2023-01-04T06:40:49;18.67;;;4.07;;
11034;SDS011;5571;48.110;-1.706;2023-01-04T06:43:15;14.93;;;3.10;;
11034;SDS011;5571;48.110;-1.706;2023-01-04T06:45:41;18.13;;;3.80;;
11034;SDS011;5571;48.110;-1.706;2023-01-04T06:48:07;24.63;;;3.90;;
11034;SDS011;5571;48.110;-1.706;2023-01-04T06:50:33;16.97;;;3.40;;
11034;SDS011;5571;48.110;-1.706;2023-01-04T06:52:58;12.10;;;3.10;;
11034;SDS011;5571;48.110;-1.706;2023-01-04T06:55:24;16.73;;;3.93;;
11034;SDS011;5571;48.110;-1.706;2023-01-04T06:57:50;22.30;;;3.57;;
11034;SDS011;5571;48.110;-1.706;2023-01-04T07:00:16;17.43;;;3.43;;
11034;SDS011;5571;48.110;-1.706;2023-01-04T07:02:41;19.30;;;3.53;;
11034;SDS011;5571;48.110;-1.706;2023-01-04T07:05:07;17.37;;;3.47;;
11034;SDS011;5571;48.110;-1.706;2023-01-04T07:07:33;16.10;;;3.30;;
11034;SDS011;5571;48.110;-1.706;2023-01-04T07:09:59;21.83;;;4.30;;
11034;SDS011;5571;48.110;-1.706;2023-01-04T07:12:25;19.87;;;3.50;;
11034;SDS011;5571;48.110;-1.706;2023-01-04T07:14:51;27.37;;;4.03;;
11034;SDS011;5571;48.110;-1.706;2023-01-04T07:17:16;17.13;;;3.27;;
11034;SDS011;5571;48.110;-1.706;2023-01-04T07:19:42;19.10;;;3.60;;
11034;SDS011;5571;48.110;-1.706;2023-01-04T07:22:08;17.93;;;3.47;;
11034;SDS011;5571;48.110;-1.706;2023-01-04T07:24:33;25.63;;;4.00;;
11034;SDS011;5571;48.110;-1.706;2023-01-04T07:26:59;18.50;;;3.30;;
11034;SDS011;5571;48.110;-1.706;2023-01-04T07:29:26;17.97;;;3.53;;
11034;SDS011;5571;48.110;-1.706;2023-01-04T07:31:51;17.37;;;3.60;;
11034;SDS011;5571;48.110;-1.706;2023-01-04T07:34:18;22.13;;;3.80;;
11034;SDS011;5571;48.110;-1.706;2023-01-04T07:36:46;21.43;;;3.73;;
11034;SDS011;5571;48.110;-1.706;2023-01-04T07:39:13;15.57;;;3.37;;
11034;SDS011;5571;48.110;-1.706;2023-01-04T07:41:39;12.13;;;2.90;;
11034;SDS011;5571;48.110;-1.706;2023-01-04T07:44:05;12.40;;;2.93;;
11034;SDS011;5571;48.110;-1.706;2023-01-04T07:46:32;20.23;;;3.07;;
11034;SDS011;5571;48.110;-1.706;2023-01-04T07:48:58;18.63;;;3.10;;
11034;SDS011;5571;48.110;-1.706;2023-01-04T07:51:24;14.93;;;3.00;;
11034;SDS011;5571;48.110;-1.706;2023-01-04T07:53:50;13.60;;;3.73;;
11034;SDS011;5571;48.110;-1.706;2023-01-04T07:56:16;14.00;;;3.40;;
11034;SDS011;5571;48.110;-1.706;2023-01-04T07:58:42;13.57;;;2.60;;
11034;SDS011;5571;48.110;-1.706;2023-01-04T08:01:09;15.27;;;3.10;;
11034;SDS011;5571;48.110;-1.706;2023-01-04T08:03:36;12.50;;;3.17;;
11034;SDS011;5571;48.110;-1.706;2023-01-04T08:06:03;12.83;;;2.93;;
11034;SDS011;5571;48.110;-1.706;2023-01-04T08:08:33;12.93;;;2.90;;
11034;SDS011;5571;48.110;-1.706;2023-01-04T08:11:06;9.30;;;2.30;;
11034;SDS011;5571;48.110;-1.706;2023-01-04T08:13:33;8.40;;;2.33;;
11034;SDS011;5571;48.110;-1.706;2023-01-04T08:15:59;8.27;;;2.03;;
11034;SDS011;5571;48.110;-1.706;2023-01-04T08:18:25;7.07;;;2.10;;
11034;SDS011;5571;48.110;-1.706;2023-01-04T08:21:00;9.87;;;2.50;;
11034;SDS011;5571;48.110;-1.706;2023-01-04T08:23:30;6.23;;;1.77;;
11034;SDS011;5571;48.110;-1.706;2023-01-04T08:26:03;7.50;;;1.90;;
11034;SDS011;5571;48.110;-1.706;2023-01-04T08:28:31;7.87;;;1.93;;
11034;SDS011;5571;48.110;-1.706;2023-01-04T08:30:57;8.77;;;1.90;;
11034;SDS011;5571;48.110;-1.706;2023-01-04T08:33:23;6.63;;;1.80;;
11034;SDS011;5571;48.110;-1.706;2023-01-04T08:35:49;10.83;;;1.50;;
11034;SDS011;5571;48.110;-1.706;2023-01-04T08:38:15;6.07;;;1.40;;
11034;SDS011;5571;48.110;-1.706;2023-01-04T08:40:40;8.03;;;1.90;;
11034;SDS011;5571;48.110;-1.706;2023-01-04T08:43:06;3.40;;;1.20;;
11034;SDS011;5571;48.110;-1.706;2023-01-04T08:45:31;8.57;;;1.80;;
11034;SDS011;5571;48.110;-1.706;2023-01-04T08:47:57;6.00;;;1.80;;
11034;SDS011;5571;48.110;-1.706;2023-01-04T08:50:23;7.37;;;1.67;;
11034;SDS011;5571;48.110;-1.706;2023-01-04T08:52:48;5.77;;;1.50;;
11034;SDS011;5571;48.110;-1.706;2023-01-04T08:55:14;7.47;;;1.60;;
11034;SDS011;5571;48.110;-1.706;2023-01-04T08:57:41;3.53;;;1.50;;
11034;SDS011;5571;48.110;-1.706;2023-01-04T09:00:07;4.50;;;1.50;;
11034;SDS011;5571;48.110;-1.706;2023-01-04T09:02:33;3.03;;;1.53;;
11034;SDS011;5571;48.110;-1.706;2023-01-04T09:04:59;7.17;;;2.67;;
11034;SDS011;5571;48.110;-1.706;2023-01-04T09:07:28;4.00;;;1.80;;
11034;SDS011;5571;48.110;-1.706;2023-01-04T09:09:54;6.10;;;1.67;;
11034;SDS011;5571;48.110;-1.706;2023-01-04T09:12:21;4.70;;;1.27;;
11034;SDS011;5571;48.110;-1.706;2023-01-04T09:14:47;4.83;;;1.60;;
11034;SDS011;5571;48.110;-1.706;2023-01-04T09:17:13;7.60;;;1.70;;
11034;SDS011;5571;48.110;-1.706;2023-01-04T09:19:39;6.80;;;1.70;;
11034;SDS011;5571;48.110;-1.706;2023-01-04T09:22:05;7.03;;;2.37;;
11034;SDS011;5571;48.110;-1.706;2023-01-04T09:24:34;4.97;;;1.80;;
11034;SDS011;5571;48.110;-1.706;2023-01-04T09:26:59;7.83;;;2.00;;
11034;SDS011;5571;48.110;-1.706;2023-01-04T09:29:25;6.57;;;1.73;;
11034;SDS011;5571;48.110;-1.706;2023-01-04T09:31:54;5.53;;;1.63;;
11034;SDS011;5571;48.110;-1.706;2023-01-04T09:34:19;5.30;;;1.60;;
11034;SDS011;5571;48.110;-1.706;2023-01-04T09:36:45;5.13;;;1.53;;
11034;SDS011;5571;48.110;-1.706;2023-01-04T09:39:12;5.50;;;1.50;;
11034;SDS011;5571;48.110;-1.706;2023-01-04T09:41:39;4.90;;;1.43;;
11034;SDS011;5571;48.110;-1.706;2023-01-04T09:46:46;3.40;;;1.30;;
11034;SDS011;5571;48.110;-1.706;2023-01-04T09:51:39;6.20;;;1.73;;
11034;SDS011;5571;48.110;-1.706;2023-01-04T09:54:11;3.57;;;1.47;;
11034;SDS011;5571;48.110;-1.706;2023-01-04T09:56:43;4.30;;;1.50;;
11034;SDS011;5571;48.110;-1.706;2023-01-04T09:59:13;9.00;;;1.80;;
11034;SDS011;5571;48.110;-1.706;2023-01-04T10:01:45;3.17;;;1.40;;
11034;SDS011;5571;48.110;-1.706;2023-01-04T10:04:24;5.40;;;1.90;;
11034;SDS011;5571;48.110;-1.706;2023-01-04T10:06:57;6.67;;;2.00;;
11034;SDS011;5571;48.110;-1.706;2023-01-04T10:09:23;3.87;;;1.80;;
11034;SDS011;5571;48.110;-1.706;2023-01-04T10:20:31;9.27;;;2.33;;
11034;SDS011;5571;48.110;-1.706;2023-01-04T10:23:31;9.70;;;2.50;;
11034;SDS011;5571;48.110;-1.706;2023-01-04T10:26:11;10.30;;;2.23;;
11034;SDS011;5571;48.110;-1.706;2023-01-04T10:29:29;10.03;;;2.67;;
11034;SDS011;5571;48.110;-1.706;2023-01-04T10:32:00;10.37;;;2.13;;
11034;SDS011;5571;48.110;-1.706;2023-01-04T10:34:38;6.93;;;2.13;;
11034;SDS011;5571;48.110;-1.706;2023-01-04T10:37:17;7.50;;;2.40;;
11034;SDS011;5571;48.110;-1.706;2023-01-04T10:39:49;10.40;;;2.50;;
11034;SDS011;5571;48.110;-1.706;2023-01-04T10:44:53;7.37;;;2.07;;
11034;SDS011;5571;48.110;-1.706;2023-01-04T10:50:12;7.27;;;2.10;;
11034;SDS011;5571;48.110;-1.706;2023-01-04T10:52:47;9.63;;;2.40;;
11034;SDS011;5571;48.110;-1.706;2023-01-04T10:58:03;7.00;;;1.93;;
11034;SDS011;5571;48.110;-1.706;2023-01-04T11:00:44;7.03;;;2.10;;
11034;SDS011;5571;48.110;-1.706;2023-01-04T11:03:23;8.33;;;1.93;;
11034;SDS011;5571;48.110;-1.706;2023-01-04T11:06:01;6.30;;;1.73;;
11034;SDS011;5571;48.110;-1.706;2023-01-04T11:08:52;8.80;;;2.07;;
11034;SDS011;5571;48.110;-1.706;2023-01-04T11:11:23;8.67;;;2.00;;
11034;SDS011;5571;48.110;-1.706;2023-01-04T11:13:54;7.53;;;1.90;;
11034;SDS011;5571;48.110;-1.706;2023-01-04T11:16:20;6.97;;;1.80;;
11034;SDS011;5571;48.110;-1.706;2023-01-04T11:18:45;8.40;;;2.17;;
11034;SDS011;5571;48.110;-1.706;2023-01-04T11:21:14;2.53;;;1.50;;
11034;SDS011;5571;48.110;-1.706;2023-01-04T11:23:43;8.37;;;1.93;;
11034;SDS011;5571;48.110;-1.706;2023-01-04T11:26:12;6.77;;;1.60;;
11034;SDS011;5571;48.110;-1.706;2023-01-04T11:28:52;5.73;;;1.93;;
11034;SDS011;5571;48.110;-1.706;2023-01-04T11:34:00;5.77;;;1.77;;
11034;SDS011;5571;48.110;-1.706;2023-01-04T11:39:04;8.53;;;1.90;;
11034;SDS011;5571;48.110;-1.706;2023-01-04T11:41:52;5.90;;;1.60;;
11034;SDS011;5571;48.110;-1.706;2023-01-04T11:44:28;4.63;;;1.97;;
11034;SDS011;5571;48.110;-1.706;2023-01-04T11:47:12;5.70;;;1.60;;
11034;SDS011;5571;48.110;-1.706;2023-01-04T11:49:44;3.90;;;1.50;;
11034;SDS011;5571;48.110;-1.706;2023-01-04T11:55:16;7.70;;;1.80;;
11034;SDS011;5571;48.110;-1.706;2023-01-04T11:58:11;4.20;;;1.60;;
11034;SDS011;5571;48.110;-1.706;2023-01-04T12:00:36;4.87;;;1.77;;
11034;SDS011;5571;48.110;-1.706;2023-01-04T12:03:15;4.97;;;1.47;;
11034;SDS011;5571;48.110;-1.706;2023-01-04T12:05:44;4.67;;;1.40;;
11034;SDS011;5571;48.110;-1.706;2023-01-04T12:08:31;4.47;;;1.30;;
11034;SDS011;5571;48.110;-1.706;2023-01-04T12:10:57;2.93;;;1.60;;
11034;SDS011;5571;48.110;-1.706;2023-01-04T12:13:24;2.80;;;1.23;;
11034;SDS011;5571;48.110;-1.706;2023-01-04T12:16:01;4.13;;;1.70;;
11034;SDS011;5571;48.110;-1.706;2023-01-04T12:18:35;6.57;;;1.73;;
11034;SDS011;5571;48.110;-1.706;2023-01-04T12:21:03;4.37;;;1.00;;
11034;SDS011;5571;48.110;-1.706;2023-01-04T12:23:29;4.73;;;1.57;;
11034;SDS011;5571;48.110;-1.706;2023-01-04T12:25:58;5.20;;;0.87;;
11034;SDS011;5571;48.110;-1.706;2023-01-04T12:28:38;7.77;;;1.60;;
11034;SDS011;5571;48.110;-1.706;2023-01-04T12:33:45;5.03;;;1.30;;
11034;SDS011;5571;48.110;-1.706;2023-01-04T12:36:12;4.03;;;1.23;;
11034;SDS011;5571;48.110;-1.706;2023-01-04T12:41:21;2.50;;;0.97;;
11034;SDS011;5571;48.110;-1.706;2023-01-04T12:43:49;2.00;;;0.80;;
11034;SDS011;5571;48.110;-1.706;2023-01-04T12:52:37;3.50;;;1.07;;
11034;SDS011;5571;48.110;-1.706;2023-01-04T12:54:52;1.20;;;1.10;;
11034;SDS011;5571;48.110;-1.706;2023-01-04T13:02:24;0.70;;;0.60;;
11034;SDS011;5571;48.110;-1.706;2023-01-04T13:05:02;1.70;;;0.93;;
11034;SDS011;5571;48.110;-1.706;2023-01-04T13:07:48;1.37;;;1.07;;
11034;SDS011;5571;48.110;-1.706;2023-01-04T13:17:55;2.00;;;0.80;;
11034;SDS011;5571;48.110;-1.706;2023-01-04T13:20:22;1.13;;;0.80;;
11034;SDS011;5571;48.110;-1.706;2023-01-04T13:22:51;2.20;;;0.80;;
11034;SDS011;5571;48.110;-1.706;2023-01-04T13:25:19;0.73;;;0.50;;
11034;SDS011;5571;48.110;-1.706;2023-01-04T13:27:57;1.03;;;0.50;;
11034;SDS011;5571;48.110;-1.706;2023-01-04T13:30:35;1.37;;;0.57;;
11034;SDS011;5571;48.110;-1.706;2023-01-04T13:33:09;2.20;;;0.70;;
11034;SDS011;5571;48.110;-1.706;2023-01-04T13:35:43;1.73;;;0.80;;
11034;SDS011;5571;48.110;-1.706;2023-01-04T13:38:21;0.77;;;0.50;;
11034;SDS011;5571;48.110;-1.706;2023-01-04T13:40:47;1.20;;;0.77;;
11034;SDS011;5571;48.110;-1.706;2023-01-04T13:46:14;1.30;;;0.70;;
11034;SDS011;5571;48.110;-1.706;2023-01-04T13:48:45;0.60;;;0.60;;
11034;SDS011;5571;48.110;-1.706;2023-01-04T13:54:16;2.70;;;1.00;;
11034;SDS011;5571;48.110;-1.706;2023-01-04T13:56:43;1.43;;;0.67;;
11034;SDS011;5571;48.110;-1.706;2023-01-04T13:59:09;2.40;;;1.20;;
11034;SDS011;5571;48.110;-1.706;2023-01-04T14:01:36;1.10;;;1.00;;
11034;SDS011;5571;48.110;-1.706;2023-01-04T14:04:12;4.10;;;1.30;;
11034;SDS011;5571;48.110;-1.706;2023-01-04T14:06:48;1.10;;;0.70;;
11034;SDS011;5571;48.110;-1.706;2023-01-04T14:09:17;1.03;;;0.50;;
11034;SDS011;5571;48.110;-1.706;2023-01-04T14:11:56;2.17;;;0.77;;
11034;SDS011;5571;48.110;-1.706;2023-01-04T14:24:52;2.30;;;0.90;;
11034;SDS011;5571;48.110;-1.706;2023-01-04T14:27:33;2.50;;;1.03;;
11034;SDS011;5571;48.110;-1.706;2023-01-04T14:29:59;2.40;;;1.00;;
11034;SDS011;5571;48.110;-1.706;2023-01-04T14:32:25;4.30;;;0.90;;
11034;SDS011;5571;48.110;-1.706;2023-01-04T14:34:52;1.57;;;0.63;;
11034;SDS011;5571;48.110;-1.706;2023-01-04T14:37:18;1.60;;;0.77;;
11034;SDS011;5571;48.110;-1.706;2023-01-04T14:39:44;1.67;;;0.63;;
11034;SDS011;5571;48.110;-1.706;2023-01-04T14:42:23;2.20;;;0.83;;
11034;SDS011;5571;48.110;-1.706;2023-01-04T14:44:50;2.47;;;0.93;;
11034;SDS011;5571;48.110;-1.706;2023-01-04T14:47:16;1.17;;;1.03;;
11034;SDS011;5571;48.110;-1.706;2023-01-04T14:49:41;0.93;;;0.60;;
11034;SDS011;5571;48.110;-1.706;2023-01-04T14:52:09;3.30;;;0.77;;
11034;SDS011;5571;48.110;-1.706;2023-01-04T14:54:47;1.30;;;0.53;;
11034;SDS011;5571;48.110;-1.706;2023-01-04T14:57:14;3.07;;;0.90;;
11034;SDS011;5571;48.110;-1.706;2023-01-04T14:59:40;2.20;;;0.60;;
11034;SDS011;5571;48.110;-1.706;2023-01-04T15:02:08;1.37;;;0.50;;
11034;SDS011;5571;48.110;-1.706;2023-01-04T15:04:34;1.90;;;0.60;;
11034;SDS011;5571;48.110;-1.706;2023-01-04T15:07:00;1.93;;;0.60;;
11034;SDS011;5571;48.110;-1.706;2023-01-04T15:09:26;2.90;;;0.93;;
11034;SDS011;5571;48.110;-1.706;2023-01-04T15:11:53;1.00;;;0.83;;
11034;SDS011;5571;48.110;-1.706;2023-01-04T15:14:18;1.80;;;0.90;;
11034;SDS011;5571;48.110;-1.706;2023-01-04T15:16:44;1.10;;;0.77;;
11034;SDS011;5571;48.110;-1.706;2023-01-04T15:19:10;1.60;;;1.00;;
11034;SDS011;5571;48.110;-1.706;2023-01-04T15:21:36;1.13;;;0.70;;
11034;SDS011;5571;48.110;-1.706;2023-01-04T15:24:01;1.17;;;0.80;;
11034;SDS011;5571;48.110;-1.706;2023-01-04T15:26:27;1.97;;;1.17;;
11034;SDS011;5571;48.110;-1.706;2023-01-04T15:28:53;2.60;;;0.83;;
11034;SDS011;5571;48.110;-1.706;2023-01-04T15:31:19;1.03;;;0.50;;
11034;SDS011;5571;48.110;-1.706;2023-01-04T15:33:44;1.23;;;0.80;;
11034;SDS011;5571;48.110;-1.706;2023-01-04T15:36:11;1.20;;;0.60;;
11034;SDS011;5571;48.110;-1.706;2023-01-04T15:38:39;1.43;;;0.70;;
11034;SDS011;5571;48.110;-1.706;2023-01-04T15:41:05;2.60;;;0.90;;
11034;SDS011;5571;48.110;-1.706;2023-01-04T15:43:57;2.00;;;1.10;;
11034;SDS011;5571;48.110;-1.706;2023-01-04T15:46:23;3.57;;;1.00;;
11034;SDS011;5571;48.110;-1.706;2023-01-04T15:48:49;2.30;;;0.90;;
11034;SDS011;5571;48.110;-1.706;2023-01-04T15:51:14;1.23;;;1.07;;
11034;SDS011;5571;48.110;-1.706;2023-01-04T15:53:40;2.33;;;0.97;;
11034;SDS011;5571;48.110;-1.706;2023-01-04T15:56:06;1.47;;;0.77;;
11034;SDS011;5571;48.110;-1.706;2023-01-04T15:58:35;1.70;;;1.00;;
11034;SDS011;5571;48.110;-1.706;2023-01-04T16:01:10;1.77;;;1.10;;
11034;SDS011;5571;48.110;-1.706;2023-01-04T16:03:38;1.67;;;0.90;;
11034;SDS011;5571;48.110;-1.706;2023-01-04T16:06:08;3.13;;;1.10;;
11034;SDS011;5571;48.110;-1.706;2023-01-04T16:08:36;2.77;;;0.93;;
11034;SDS011;5571;48.110;-1.706;2023-01-04T16:11:15;2.43;;;0.93;;
11034;SDS011;5571;48.110;-1.706;2023-01-04T16:13:43;3.77;;;0.93;;
11034;SDS011;5571;48.110;-1.706;2023-01-04T16:16:10;1.20;;;0.93;;
11034;SDS011;5571;48.110;-1.706;2023-01-04T16:18:36;2.30;;;1.40;;
11034;SDS011;5571;48.110;-1.706;2023-01-04T16:21:06;3.03;;;1.50;;
11034;SDS011;5571;48.110;-1.706;2023-01-04T16:23:32;4.37;;;1.37;;
11034;SDS011;5571;48.110;-1.706;2023-01-04T16:26:09;3.67;;;1.40;;
11034;SDS011;5571;48.110;-1.706;2023-01-04T16:28:37;3.17;;;1.20;;
11034;SDS011;5571;48.110;-1.706;2023-01-04T16:31:03;3.73;;;1.50;;
11034;SDS011;5571;48.110;-1.706;2023-01-04T16:33:30;2.37;;;1.40;;
11034;SDS011;5571;48.110;-1.706;2023-01-04T16:38:29;2.73;;;1.33;;
11034;SDS011;5571;48.110;-1.706;2023-01-04T16:40:56;1.83;;;1.30;;
11034;SDS011;5571;48.110;-1.706;2023-01-04T16:43:23;2.07;;;1.30;;
11034;SDS011;5571;48.110;-1.706;2023-01-04T16:45:48;4.30;;;1.50;;